ECCDI LEPA-LPPR
Flight info
| Callsign | ECCDI |
|---|---|
| Flight time | 1h 27m |
| Altitude | 45000 |
| Route | EPAMA N733 ZMR L155 ADORO DCT INKIT |
| Aircraft | C750/M-SBDE3FGHRWXY/S |
Departure
| Time | 2026-05-07 15:59 |
|---|---|
| Airport | Palma de Mallorca Airport (LEPA) |
Arrival
| Time | 2026-05-07 17:26 |
|---|---|
| Airport | Francisco de Sá Carneiro Airport (LPPR) |
| Time | Latitude | Longitude | Altitude | Speed | Heading |
|---|---|---|---|---|---|
| 2026-05-07 15:32 | 39.54182 | 2.72701 | 32 ft | 0 kts | 146° |
| 2026-05-07 15:52 | 39.54180 | 2.72703 | 32 ft | 1 kts | 146° |
| 2026-05-07 15:52 | 39.54160 | 2.72741 | 32 ft | 9 kts | 110° |
| 2026-05-07 15:52 | 39.54176 | 2.72834 | 33 ft | 12 kts | 54° |
| 2026-05-07 15:53 | 39.54180 | 2.72908 | 33 ft | 8 kts | 129° |
| 2026-05-07 15:53 | 39.54156 | 2.72941 | 33 ft | 0 kts | 116° |
| 2026-05-07 15:53 | 39.54156 | 2.72942 | 33 ft | 0 kts | 116° |
| 2026-05-07 15:56 | 39.54154 | 2.72950 | 33 ft | 4 kts | 108° |
| 2026-05-07 15:56 | 39.54157 | 2.73029 | 33 ft | 14 kts | 86° |
| 2026-05-07 15:56 | 39.54156 | 2.73185 | 33 ft | 18 kts | 80° |
| 2026-05-07 15:56 | 39.54202 | 2.73336 | 31 ft | 18 kts | 59° |
| 2026-05-07 15:57 | 39.54262 | 2.73464 | 30 ft | 16 kts | 58° |
| 2026-05-07 15:57 | 39.54320 | 2.73585 | 28 ft | 14 kts | 58° |
| 2026-05-07 15:57 | 39.54329 | 2.73606 | 27 ft | 0 kts | 58° |
| 2026-05-07 15:58 | 39.54355 | 2.73661 | 27 ft | 20 kts | 58° |
| 2026-05-07 15:58 | 39.54629 | 2.74241 | 27 ft | 126 kts | 60° |
| 2026-05-07 15:58 | 39.55109 | 2.75289 | 526 ft | 136 kts | 60° |
| 2026-05-07 15:59 | 39.55641 | 2.76385 | 1102 ft | 151 kts | 58° |
| 2026-05-07 15:59 | 39.56231 | 2.77561 | 1805 ft | 162 kts | 58° |
| 2026-05-07 15:59 | 39.56863 | 2.78867 | 2532 ft | 178 kts | 60° |
| 2026-05-07 15:59 | 39.57538 | 2.80270 | 3365 ft | 188 kts | 60° |
| 2026-05-07 16:00 | 39.58246 | 2.81741 | 4281 ft | 196 kts | 59° |
| 2026-05-07 16:00 | 39.58975 | 2.83260 | 5239 ft | 200 kts | 60° |
| 2026-05-07 16:00 | 39.59729 | 2.84830 | 5965 ft | 215 kts | 60° |
| 2026-05-07 16:00 | 39.60533 | 2.86506 | 6776 ft | 220 kts | 60° |
| 2026-05-07 16:01 | 39.61343 | 2.88192 | 7760 ft | 222 kts | 60° |
| 2026-05-07 16:01 | 39.62222 | 2.89886 | 8572 ft | 238 kts | 51° |
| 2026-05-07 16:01 | 39.63758 | 2.91007 | 8835 ft | 278 kts | 15° |
| 2026-05-07 16:01 | 39.65736 | 2.90734 | 9496 ft | 296 kts | 338° |
| 2026-05-07 16:02 | 39.67314 | 2.89048 | 10393 ft | 303 kts | 307° |
| 2026-05-07 16:02 | 39.68136 | 2.86446 | 10600 ft | 328 kts | 278° |
| 2026-05-07 16:02 | 39.68042 | 2.83385 | 10724 ft | 351 kts | 260° |
| 2026-05-07 16:02 | 39.67583 | 2.80282 | 11372 ft | 356 kts | 257° |
| 2026-05-07 16:03 | 39.67198 | 2.77102 | 12159 ft | 360 kts | 262° |
| 2026-05-07 16:03 | 39.67083 | 2.73835 | 12886 ft | 365 kts | 268° |
| 2026-05-07 16:03 | 39.67066 | 2.70545 | 13648 ft | 357 kts | 267° |
| 2026-05-07 16:03 | 39.66943 | 2.67494 | 13989 ft | 323 kts | 263° |
| 2026-05-07 16:04 | 39.66759 | 2.64695 | 13975 ft | 299 kts | 263° |
| 2026-05-07 16:04 | 39.66623 | 2.62070 | 13972 ft | 286 kts | 264° |
| 2026-05-07 16:04 | 39.66520 | 2.59478 | 13989 ft | 290 kts | 264° |
| 2026-05-07 16:04 | 39.66406 | 2.56854 | 13987 ft | 292 kts | 264° |
| 2026-05-07 16:05 | 39.66279 | 2.54214 | 14003 ft | 293 kts | 264° |
| 2026-05-07 16:05 | 39.66149 | 2.51511 | 14036 ft | 313 kts | 264° |
| 2026-05-07 16:05 | 39.66010 | 2.48566 | 14108 ft | 340 kts | 264° |
| 2026-05-07 16:05 | 39.65864 | 2.45386 | 14159 ft | 365 kts | 265° |
| 2026-05-07 16:06 | 39.65709 | 2.42037 | 14671 ft | 372 kts | 265° |
| 2026-05-07 16:06 | 39.65551 | 2.38694 | 15408 ft | 372 kts | 265° |
| 2026-05-07 16:06 | 39.65391 | 2.35373 | 16069 ft | 375 kts | 264° |
| 2026-05-07 16:06 | 39.65227 | 2.31976 | 16769 ft | 378 kts | 264° |
| 2026-05-07 16:07 | 39.65062 | 2.28556 | 17483 ft | 381 kts | 264° |
| 2026-05-07 16:07 | 39.64894 | 2.25108 | 18211 ft | 384 kts | 264° |
| 2026-05-07 16:07 | 39.64724 | 2.21637 | 18873 ft | 387 kts | 264° |
| 2026-05-07 16:07 | 39.64552 | 2.18137 | 19533 ft | 390 kts | 264° |
| 2026-05-07 16:08 | 39.64377 | 2.14606 | 20215 ft | 393 kts | 263° |
| 2026-05-07 16:08 | 39.64199 | 2.11057 | 20908 ft | 396 kts | 263° |
| 2026-05-07 16:08 | 39.64020 | 2.07477 | 21594 ft | 399 kts | 263° |
| 2026-05-07 16:08 | 39.63837 | 2.03866 | 22262 ft | 403 kts | 263° |
| 2026-05-07 16:09 | 39.63652 | 2.00227 | 22929 ft | 406 kts | 263° |
| 2026-05-07 16:09 | 39.63464 | 1.96558 | 23572 ft | 409 kts | 263° |
| 2026-05-07 16:09 | 39.63277 | 1.92917 | 24180 ft | 410 kts | 262° |
| 2026-05-07 16:09 | 39.63089 | 1.89267 | 24786 ft | 411 kts | 262° |
| 2026-05-07 16:10 | 39.62896 | 1.85560 | 25393 ft | 412 kts | 262° |
| 2026-05-07 16:10 | 39.62701 | 1.81845 | 25985 ft | 414 kts | 262° |
| 2026-05-07 16:10 | 39.62504 | 1.78115 | 26592 ft | 415 kts | 262° |
| 2026-05-07 16:10 | 39.62306 | 1.74377 | 27180 ft | 417 kts | 261° |
| 2026-05-07 16:11 | 39.62105 | 1.70619 | 27783 ft | 418 kts | 261° |
| 2026-05-07 16:11 | 39.61903 | 1.66850 | 28378 ft | 420 kts | 261° |
| 2026-05-07 16:11 | 39.61697 | 1.63058 | 28966 ft | 422 kts | 261° |
| 2026-05-07 16:11 | 39.61490 | 1.59248 | 29526 ft | 425 kts | 261° |
| 2026-05-07 16:12 | 39.61280 | 1.55410 | 30071 ft | 428 kts | 260° |
| 2026-05-07 16:12 | 39.61067 | 1.51550 | 30515 ft | 430 kts | 261° |
| 2026-05-07 16:12 | 39.60853 | 1.47672 | 31011 ft | 431 kts | 261° |
| 2026-05-07 16:12 | 39.60669 | 1.43801 | 31719 ft | 429 kts | 263° |
| 2026-05-07 16:13 | 39.60800 | 1.39917 | 32402 ft | 432 kts | 270° |
| 2026-05-07 16:13 | 39.61288 | 1.36070 | 33127 ft | 434 kts | 276° |
| 2026-05-07 16:13 | 39.62133 | 1.32300 | 33883 ft | 436 kts | 283° |
| 2026-05-07 16:13 | 39.63260 | 1.28645 | 34490 ft | 436 kts | 285° |
| 2026-05-07 16:14 | 39.64384 | 1.25057 | 35040 ft | 434 kts | 285° |
| 2026-05-07 16:14 | 39.65504 | 1.21420 | 35581 ft | 434 kts | 285° |
| 2026-05-07 16:14 | 39.66644 | 1.17745 | 36159 ft | 433 kts | 286° |
| 2026-05-07 16:14 | 39.67761 | 1.14174 | 36724 ft | 432 kts | 286° |
| 2026-05-07 16:15 | 39.68884 | 1.10566 | 37307 ft | 431 kts | 286° |
| 2026-05-07 16:15 | 39.69998 | 1.06960 | 37904 ft | 430 kts | 286° |
| 2026-05-07 16:15 | 39.71111 | 1.03360 | 38513 ft | 428 kts | 286° |
| 2026-05-07 16:15 | 39.72221 | 0.99775 | 38996 ft | 428 kts | 287° |
| 2026-05-07 16:16 | 39.73329 | 0.96187 | 39410 ft | 428 kts | 287° |
| 2026-05-07 16:16 | 39.74437 | 0.92591 | 39832 ft | 429 kts | 287° |
| 2026-05-07 16:16 | 39.75544 | 0.88994 | 40273 ft | 429 kts | 287° |
| 2026-05-07 16:16 | 39.76654 | 0.85386 | 40696 ft | 429 kts | 287° |
| 2026-05-07 16:17 | 39.77763 | 0.81777 | 41119 ft | 430 kts | 287° |
| 2026-05-07 16:17 | 39.78871 | 0.78162 | 41542 ft | 431 kts | 287° |
| 2026-05-07 16:17 | 39.79978 | 0.74547 | 41968 ft | 431 kts | 287° |
| 2026-05-07 16:17 | 39.81087 | 0.70924 | 42381 ft | 431 kts | 287° |
| 2026-05-07 16:18 | 39.82196 | 0.67293 | 42776 ft | 432 kts | 287° |
| 2026-05-07 16:18 | 39.83305 | 0.63658 | 43174 ft | 432 kts | 287° |
| 2026-05-07 16:18 | 39.84413 | 0.60021 | 43567 ft | 433 kts | 287° |
| 2026-05-07 16:18 | 39.85524 | 0.56369 | 43946 ft | 434 kts | 287° |
| 2026-05-07 16:19 | 39.86633 | 0.52718 | 44320 ft | 434 kts | 287° |
| 2026-05-07 16:19 | 39.87743 | 0.49060 | 44686 ft | 434 kts | 287° |
| 2026-05-07 16:19 | 39.88853 | 0.45399 | 44956 ft | 436 kts | 287° |
| 2026-05-07 16:20 | 39.91100 | 0.37956 | 44935 ft | 452 kts | 288° |
| 2026-05-07 16:20 | 39.93438 | 0.30209 | 44948 ft | 467 kts | 288° |
| 2026-05-07 16:21 | 39.95836 | 0.22234 | 44954 ft | 477 kts | 288° |
| 2026-05-07 16:21 | 39.98252 | 0.14181 | 44956 ft | 476 kts | 288° |
| 2026-05-07 16:22 | 40.00657 | 0.06129 | 44958 ft | 477 kts | 288° |
| 2026-05-07 16:22 | 40.03059 | -0.01931 | 44957 ft | 476 kts | 288° |
| 2026-05-07 16:23 | 40.05442 | -0.09956 | 44957 ft | 475 kts | 287° |
| 2026-05-07 16:23 | 40.07825 | -0.18003 | 44958 ft | 475 kts | 288° |
| 2026-05-07 16:24 | 40.10208 | -0.26070 | 44931 ft | 476 kts | 288° |
| 2026-05-07 16:24 | 40.12585 | -0.34151 | 44921 ft | 476 kts | 287° |
| 2026-05-07 16:25 | 40.14946 | -0.42193 | 44923 ft | 477 kts | 287° |
| 2026-05-07 16:25 | 40.17314 | -0.50292 | 44928 ft | 477 kts | 287° |
| 2026-05-07 16:26 | 40.19684 | -0.58413 | 44937 ft | 478 kts | 287° |
| 2026-05-07 16:26 | 40.22047 | -0.66541 | 44940 ft | 478 kts | 287° |
| 2026-05-07 16:27 | 40.24404 | -0.74672 | 44956 ft | 478 kts | 287° |
| 2026-05-07 16:27 | 40.26758 | -0.82821 | 44967 ft | 478 kts | 287° |
| 2026-05-07 16:28 | 40.29107 | -0.90976 | 44973 ft | 479 kts | 287° |
| 2026-05-07 16:28 | 40.31451 | -0.99140 | 44987 ft | 478 kts | 287° |
| 2026-05-07 16:29 | 40.33773 | -1.07251 | 44990 ft | 478 kts | 287° |
| 2026-05-07 16:29 | 40.36105 | -1.15423 | 45000 ft | 478 kts | 287° |
| 2026-05-07 16:30 | 40.38431 | -1.23601 | 45000 ft | 478 kts | 287° |
| 2026-05-07 16:30 | 40.40753 | -1.31790 | 44990 ft | 479 kts | 287° |
| 2026-05-07 16:31 | 40.43205 | -1.39929 | 44993 ft | 479 kts | 289° |
| 2026-05-07 16:31 | 40.45770 | -1.47952 | 44992 ft | 480 kts | 290° |
| 2026-05-07 16:32 | 40.48378 | -1.56027 | 44970 ft | 479 kts | 290° |
| 2026-05-07 16:32 | 40.50496 | -1.64280 | 44956 ft | 476 kts | 282° |
| 2026-05-07 16:33 | 40.52114 | -1.72721 | 44954 ft | 478 kts | 284° |
| 2026-05-07 16:33 | 40.54499 | -1.80895 | 44958 ft | 480 kts | 290° |
| 2026-05-07 16:34 | 40.56830 | -1.89098 | 44952 ft | 478 kts | 285° |
| 2026-05-07 16:34 | 40.59044 | -1.97348 | 44952 ft | 479 kts | 288° |
| 2026-05-07 16:35 | 40.61365 | -2.05564 | 44948 ft | 479 kts | 287° |
| 2026-05-07 16:35 | 40.63586 | -2.13818 | 44942 ft | 479 kts | 287° |
| 2026-05-07 16:36 | 40.65859 | -2.22006 | 44934 ft | 479 kts | 287° |
| 2026-05-07 16:36 | 40.68095 | -2.30282 | 44931 ft | 479 kts | 287° |
| 2026-05-07 16:37 | 40.70327 | -2.38442 | 44942 ft | 482 kts | 287° |
| 2026-05-07 16:37 | 40.72599 | -2.46853 | 44934 ft | 481 kts | 287° |
| 2026-05-07 16:38 | 40.74469 | -2.53765 | 44935 ft | 482 kts | 287° |
| 2026-05-07 16:38 | 40.76711 | -2.62091 | 44926 ft | 482 kts | 287° |
| 2026-05-07 16:39 | 40.78960 | -2.70467 | 44931 ft | 481 kts | 287° |
| 2026-05-07 16:39 | 40.81175 | -2.78747 | 44926 ft | 481 kts | 287° |
| 2026-05-07 16:40 | 40.83413 | -2.87141 | 44928 ft | 481 kts | 287° |
| 2026-05-07 16:40 | 40.85617 | -2.95436 | 44928 ft | 481 kts | 287° |
| 2026-05-07 16:41 | 40.87829 | -3.03788 | 44941 ft | 481 kts | 287° |
| 2026-05-07 16:41 | 40.90036 | -3.12150 | 44930 ft | 482 kts | 287° |
| 2026-05-07 16:42 | 40.92236 | -3.20514 | 44936 ft | 482 kts | 287° |
| 2026-05-07 16:42 | 40.94432 | -3.28892 | 44936 ft | 482 kts | 287° |
| 2026-05-07 16:43 | 40.96624 | -3.37279 | 44933 ft | 482 kts | 287° |
| 2026-05-07 16:43 | 40.98809 | -3.45673 | 44926 ft | 482 kts | 287° |
| 2026-05-07 16:44 | 41.00974 | -3.54019 | 44937 ft | 482 kts | 287° |
| 2026-05-07 16:44 | 41.03147 | -3.62423 | 44936 ft | 482 kts | 287° |
| 2026-05-07 16:45 | 41.05314 | -3.70834 | 44926 ft | 482 kts | 287° |
| 2026-05-07 16:45 | 41.07477 | -3.79259 | 44924 ft | 482 kts | 287° |
| 2026-05-07 16:46 | 41.09632 | -3.87677 | 44921 ft | 484 kts | 287° |
| 2026-05-07 16:46 | 41.11788 | -3.96136 | 44913 ft | 483 kts | 287° |
| 2026-05-07 16:47 | 41.13930 | -4.04564 | 44913 ft | 482 kts | 287° |
| 2026-05-07 16:47 | 41.16061 | -4.12983 | 44913 ft | 481 kts | 287° |
| 2026-05-07 16:48 | 41.18183 | -4.21392 | 44911 ft | 480 kts | 287° |
| 2026-05-07 16:48 | 41.20284 | -4.29751 | 44905 ft | 480 kts | 286° |
| 2026-05-07 16:49 | 41.22404 | -4.38213 | 44906 ft | 480 kts | 287° |
| 2026-05-07 16:49 | 41.24505 | -4.46631 | 44912 ft | 480 kts | 286° |
| 2026-05-07 16:50 | 41.26590 | -4.55011 | 44917 ft | 480 kts | 286° |
| 2026-05-07 16:50 | 41.28682 | -4.63451 | 44913 ft | 480 kts | 286° |
| 2026-05-07 16:51 | 41.30764 | -4.71883 | 44913 ft | 480 kts | 286° |
| 2026-05-07 16:51 | 41.32842 | -4.80329 | 44915 ft | 480 kts | 286° |
| 2026-05-07 16:52 | 41.34914 | -4.88777 | 44912 ft | 480 kts | 286° |
| 2026-05-07 16:52 | 41.36977 | -4.97224 | 44910 ft | 480 kts | 286° |
| 2026-05-07 16:53 | 41.39034 | -5.05673 | 44908 ft | 479 kts | 286° |
| 2026-05-07 16:53 | 41.41087 | -5.14139 | 44906 ft | 479 kts | 286° |
| 2026-05-07 16:54 | 41.43129 | -5.22590 | 44906 ft | 479 kts | 286° |
| 2026-05-07 16:54 | 41.45167 | -5.31055 | 44899 ft | 479 kts | 286° |
| 2026-05-07 16:55 | 41.47183 | -5.39460 | 44897 ft | 479 kts | 286° |
| 2026-05-07 16:55 | 41.49210 | -5.47939 | 44895 ft | 479 kts | 286° |
| 2026-05-07 16:56 | 41.51227 | -5.56411 | 44886 ft | 479 kts | 285° |
| 2026-05-07 16:56 | 41.52632 | -5.69462 | 44863 ft | 475 kts | 265° |
| 2026-05-07 16:57 | 41.51991 | -5.78244 | 44881 ft | 478 kts | 264° |
| 2026-05-07 16:57 | 41.51367 | -5.87059 | 44875 ft | 476 kts | 264° |
| 2026-05-07 16:58 | 41.50713 | -5.95873 | 44872 ft | 477 kts | 264° |
| 2026-05-07 16:58 | 41.50072 | -6.04609 | 44869 ft | 476 kts | 264° |
| 2026-05-07 16:59 | 41.49411 | -6.13403 | 44838 ft | 474 kts | 263° |
| 2026-05-07 16:59 | 41.49024 | -6.17726 | 43914 ft | 467 kts | 260° |
| 2026-05-07 16:59 | 41.48332 | -6.21813 | 42845 ft | 435 kts | 256° |
| 2026-05-07 17:00 | 41.47553 | -6.25591 | 41843 ft | 415 kts | 256° |
| 2026-05-07 17:00 | 41.46876 | -6.29318 | 40903 ft | 413 kts | 258° |
| 2026-05-07 17:00 | 41.46294 | -6.33043 | 40072 ft | 408 kts | 259° |
| 2026-05-07 17:00 | 41.45682 | -6.36724 | 39303 ft | 404 kts | 258° |
| 2026-05-07 17:01 | 41.45022 | -6.40343 | 38586 ft | 401 kts | 258° |
| 2026-05-07 17:01 | 41.44372 | -6.43952 | 37762 ft | 400 kts | 259° |
| 2026-05-07 17:01 | 41.43759 | -6.47535 | 36962 ft | 401 kts | 259° |
| 2026-05-07 17:01 | 41.43137 | -6.51161 | 36206 ft | 402 kts | 259° |
| 2026-05-07 17:02 | 41.42494 | -6.54791 | 35486 ft | 402 kts | 259° |
| 2026-05-07 17:02 | 41.41850 | -6.58411 | 34792 ft | 402 kts | 260° |
| 2026-05-07 17:02 | 41.41212 | -6.62045 | 34140 ft | 407 kts | 260° |
| 2026-05-07 17:02 | 41.40570 | -6.65704 | 33457 ft | 400 kts | 260° |
| 2026-05-07 17:03 | 41.39928 | -6.69320 | 32746 ft | 404 kts | 260° |
| 2026-05-07 17:03 | 41.39283 | -6.72966 | 32074 ft | 412 kts | 260° |
| 2026-05-07 17:03 | 41.38620 | -6.76706 | 31432 ft | 418 kts | 260° |
| 2026-05-07 17:03 | 41.37953 | -6.80447 | 30823 ft | 423 kts | 259° |
| 2026-05-07 17:04 | 41.37260 | -6.84329 | 30241 ft | 427 kts | 259° |
| 2026-05-07 17:04 | 41.36573 | -6.88168 | 29609 ft | 425 kts | 259° |
| 2026-05-07 17:04 | 41.35888 | -6.91990 | 28930 ft | 423 kts | 259° |
| 2026-05-07 17:04 | 41.35208 | -6.95785 | 28258 ft | 421 kts | 259° |
| 2026-05-07 17:05 | 41.34528 | -6.99566 | 27626 ft | 419 kts | 259° |
| 2026-05-07 17:05 | 41.33859 | -7.03278 | 27025 ft | 417 kts | 259° |
| 2026-05-07 17:05 | 41.33182 | -7.07025 | 26443 ft | 416 kts | 259° |
| 2026-05-07 17:05 | 41.32507 | -7.10758 | 25870 ft | 414 kts | 259° |
| 2026-05-07 17:06 | 41.31833 | -7.14481 | 25309 ft | 413 kts | 258° |
| 2026-05-07 17:06 | 41.31159 | -7.18188 | 24760 ft | 412 kts | 258° |
| 2026-05-07 17:06 | 41.30486 | -7.21883 | 24235 ft | 411 kts | 258° |
| 2026-05-07 17:06 | 41.29814 | -7.25572 | 23726 ft | 409 kts | 258° |
| 2026-05-07 17:07 | 41.29143 | -7.29246 | 23178 ft | 408 kts | 258° |
| 2026-05-07 17:07 | 41.28475 | -7.32899 | 22587 ft | 405 kts | 258° |
| 2026-05-07 17:07 | 41.27809 | -7.36528 | 22020 ft | 402 kts | 257° |
| 2026-05-07 17:07 | 41.27147 | -7.40131 | 21473 ft | 399 kts | 257° |
| 2026-05-07 17:08 | 41.26490 | -7.43699 | 20933 ft | 396 kts | 257° |
| 2026-05-07 17:08 | 41.25836 | -7.47241 | 20408 ft | 392 kts | 257° |
| 2026-05-07 17:08 | 41.25189 | -7.50745 | 19896 ft | 390 kts | 257° |
| 2026-05-07 17:08 | 41.24544 | -7.54231 | 19408 ft | 387 kts | 256° |
| 2026-05-07 17:09 | 41.23901 | -7.57699 | 18914 ft | 387 kts | 256° |
| 2026-05-07 17:09 | 41.23258 | -7.61163 | 18427 ft | 384 kts | 256° |
| 2026-05-07 17:09 | 41.22617 | -7.64604 | 17937 ft | 384 kts | 255° |
| 2026-05-07 17:09 | 41.21978 | -7.68029 | 17406 ft | 380 kts | 255° |
| 2026-05-07 17:10 | 41.21324 | -7.71375 | 16899 ft | 378 kts | 253° |
| 2026-05-07 17:10 | 41.20441 | -7.74641 | 16383 ft | 374 kts | 247° |
| 2026-05-07 17:10 | 41.19449 | -7.77821 | 15899 ft | 372 kts | 247° |
| 2026-05-07 17:10 | 41.18556 | -7.81028 | 15422 ft | 369 kts | 250° |
| 2026-05-07 17:11 | 41.17757 | -7.84260 | 14953 ft | 367 kts | 250° |
| 2026-05-07 17:11 | 41.16926 | -7.87452 | 14508 ft | 365 kts | 248° |
| 2026-05-07 17:11 | 41.16047 | -7.90597 | 14080 ft | 363 kts | 248° |
| 2026-05-07 17:11 | 41.15183 | -7.93732 | 13642 ft | 355 kts | 248° |
| 2026-05-07 17:12 | 41.14405 | -7.96671 | 13159 ft | 331 kts | 248° |
| 2026-05-07 17:12 | 41.13644 | -7.99520 | 12861 ft | 326 kts | 248° |
| 2026-05-07 17:12 | 41.12876 | -8.02336 | 12487 ft | 324 kts | 248° |
| 2026-05-07 17:12 | 41.12105 | -8.05160 | 11771 ft | 325 kts | 248° |
| 2026-05-07 17:13 | 41.11347 | -8.07965 | 11020 ft | 321 kts | 247° |
| 2026-05-07 17:13 | 41.10596 | -8.10739 | 10289 ft | 317 kts | 248° |
| 2026-05-07 17:13 | 41.09852 | -8.13474 | 9555 ft | 314 kts | 247° |
| 2026-05-07 17:13 | 41.09119 | -8.16165 | 8771 ft | 300 kts | 247° |
| 2026-05-07 17:14 | 41.08456 | -8.18615 | 7941 ft | 265 kts | 248° |
| 2026-05-07 17:14 | 41.07882 | -8.20726 | 7188 ft | 235 kts | 247° |
| 2026-05-07 17:14 | 41.07326 | -8.22746 | 6432 ft | 237 kts | 247° |
| 2026-05-07 17:14 | 41.06766 | -8.24786 | 5852 ft | 228 kts | 248° |
| 2026-05-07 17:15 | 41.06244 | -8.26705 | 5879 ft | 226 kts | 248° |
| 2026-05-07 17:15 | 41.05706 | -8.28671 | 5902 ft | 227 kts | 248° |
| 2026-05-07 17:15 | 41.05165 | -8.30646 | 5894 ft | 228 kts | 247° |
| 2026-05-07 17:15 | 41.04624 | -8.32625 | 5887 ft | 229 kts | 247° |
| 2026-05-07 17:16 | 41.04081 | -8.34602 | 5905 ft | 228 kts | 247° |
| 2026-05-07 17:16 | 41.03539 | -8.36577 | 5911 ft | 228 kts | 247° |
| 2026-05-07 17:16 | 41.02996 | -8.38557 | 5903 ft | 229 kts | 247° |
| 2026-05-07 17:16 | 41.02452 | -8.40534 | 5900 ft | 227 kts | 247° |
| 2026-05-07 17:17 | 41.01919 | -8.42473 | 5478 ft | 226 kts | 247° |
| 2026-05-07 17:17 | 41.01378 | -8.44437 | 5051 ft | 224 kts | 248° |
| 2026-05-07 17:17 | 41.00881 | -8.46249 | 4821 ft | 208 kts | 248° |
| 2026-05-07 17:17 | 41.00380 | -8.48079 | 4375 ft | 212 kts | 250° |
| 2026-05-07 17:18 | 41.00089 | -8.49915 | 4270 ft | 196 kts | 258° |
| 2026-05-07 17:18 | 40.99824 | -8.51723 | 3991 ft | 207 kts | 257° |
| 2026-05-07 17:18 | 40.99542 | -8.53562 | 3992 ft | 201 kts | 257° |
| 2026-05-07 17:18 | 40.99272 | -8.55368 | 4000 ft | 201 kts | 257° |
| 2026-05-07 17:19 | 40.99007 | -8.57154 | 3997 ft | 191 kts | 258° |
| 2026-05-07 17:19 | 40.98841 | -8.58778 | 3962 ft | 168 kts | 270° |
| 2026-05-07 17:19 | 40.99175 | -8.60220 | 3966 ft | 170 kts | 294° |
| 2026-05-07 17:19 | 40.99985 | -8.61366 | 3973 ft | 176 kts | 321° |
| 2026-05-07 17:20 | 41.01093 | -8.61914 | 3991 ft | 181 kts | 345° |
| 2026-05-07 17:20 | 41.02384 | -8.62236 | 3900 ft | 183 kts | 345° |
| 2026-05-07 17:20 | 41.03636 | -8.62571 | 3745 ft | 183 kts | 345° |
| 2026-05-07 17:20 | 41.04806 | -8.62885 | 3574 ft | 165 kts | 345° |
| 2026-05-07 17:21 | 41.05946 | -8.63193 | 3413 ft | 166 kts | 345° |
| 2026-05-07 17:21 | 41.07084 | -8.63495 | 3282 ft | 167 kts | 345° |
| 2026-05-07 17:21 | 41.07839 | -8.63692 | 3147 ft | 167 kts | 345° |
| 2026-05-07 17:21 | 41.09326 | -8.64075 | 2992 ft | 162 kts | 346° |
| 2026-05-07 17:22 | 41.10066 | -8.64269 | 2914 ft | 164 kts | 346° |
| 2026-05-07 17:22 | 41.11130 | -8.64543 | 2694 ft | 149 kts | 345° |
| 2026-05-07 17:22 | 41.12107 | -8.64798 | 2494 ft | 138 kts | 346° |
| 2026-05-07 17:22 | 41.13343 | -8.65122 | 2263 ft | 137 kts | 345° |
| 2026-05-07 17:23 | 41.14278 | -8.65369 | 2063 ft | 137 kts | 345° |
| 2026-05-07 17:23 | 41.15203 | -8.65610 | 1895 ft | 134 kts | 343° |
| 2026-05-07 17:23 | 41.15818 | -8.65771 | 1759 ft | 132 kts | 345° |
| 2026-05-07 17:23 | 41.16707 | -8.66002 | 1579 ft | 129 kts | 344° |
| 2026-05-07 17:24 | 41.17571 | -8.66212 | 1488 ft | 123 kts | 346° |
| 2026-05-07 17:24 | 41.18405 | -8.66405 | 1367 ft | 121 kts | 345° |
| 2026-05-07 17:24 | 41.19238 | -8.66605 | 1208 ft | 123 kts | 345° |
| 2026-05-07 17:24 | 41.20060 | -8.66829 | 1065 ft | 121 kts | 345° |
| 2026-05-07 17:25 | 41.20885 | -8.67057 | 851 ft | 121 kts | 345° |
| 2026-05-07 17:25 | 41.21698 | -8.67275 | 679 ft | 116 kts | 346° |
| 2026-05-07 17:25 | 41.22471 | -8.67489 | 468 ft | 112 kts | 341° |
| 2026-05-07 17:25 | 41.23241 | -8.67706 | 298 ft | 115 kts | 344° |
| 2026-05-07 17:26 | 41.23982 | -8.67917 | 213 ft | 98 kts | 343° |
| 2026-05-07 17:26 | 41.24423 | -8.68039 | 205 ft | 39 kts | 349° |
| 2026-05-07 17:26 | 41.24596 | -8.68077 | 202 ft | 22 kts | 351° |
| 2026-05-07 17:26 | 41.24759 | -8.68114 | 197 ft | 25 kts | 349° |
| 2026-05-07 17:27 | 41.24885 | -8.68065 | 191 ft | 19 kts | 94° |
| 2026-05-07 17:27 | 41.24856 | -8.67990 | 199 ft | 0 kts | 123° |
| 2026-05-07 17:28 | 41.24852 | -8.67982 | 192 ft | 5 kts | 124° |
| 2026-05-07 17:29 | 41.24820 | -8.67922 | 199 ft | 10 kts | 125° |
| 2026-05-07 17:29 | 41.24780 | -8.67849 | 196 ft | 10 kts | 128° |
| 2026-05-07 17:29 | 41.24735 | -8.67818 | 198 ft | 8 kts | 169° |
| 2026-05-07 17:29 | 41.24674 | -8.67804 | 200 ft | 10 kts | 171° |
| 2026-05-07 17:30 | 41.24598 | -8.67783 | 202 ft | 13 kts | 168° |
| 2026-05-07 17:30 | 41.24505 | -8.67758 | 206 ft | 15 kts | 168° |
| 2026-05-07 17:30 | 41.24396 | -8.67728 | 208 ft | 18 kts | 168° |
| 2026-05-07 17:30 | 41.24283 | -8.67662 | 210 ft | 18 kts | 127° |
| 2026-05-07 17:31 | 41.24208 | -8.67602 | 218 ft | 6 kts | 241° |
| 2026-05-07 17:31 | 41.24194 | -8.67673 | 220 ft | 2 kts | 259° |
| 2026-05-07 17:31 | 41.24194 | -8.67674 | 220 ft | 0 kts | 259° |